Etusivu
METAR-TAF:

METAR-TAF

Lentoasemat :

Auburn, Alabama, Yhdysvallat

Leveyspiiri: 32-37N, Pituuspiiri: 085-26W, korkeus merenpinnasta: 236 m

Tämänhetkinen sää

Tämä raportti tehtiin 32 minuuttia sitten, kello 01.56 UTC
Tuuli 10 kn lounaasta
Lämpötila 23°C
Kosteus 89%
Ilmanpaine 1017 hPa
Näkyvyys: 16.1 km
selkeää

METAR: KAUO 060156Z AUTO 23010KT 10SM CLR 23/21 A3003 RMK AO2 SLP178 T02280211 $

Aika: 21:28 (02:28 UTC)


TAF: puuttuu

Säähavainnot ja -ennusteet yli 4000 lentoasemalta (METAR- ja TAF-raportit).

Käytössä olevat sääasemat on merkitty karttaan keltaisilla ja punaisilla pisteillä.

Aseta hiiri pisteen päälle nähdäksesi sääaseman nimen.

Klikkaa sitten nähdäksesi säähavainnot ja -ennusteet.

Kartan vaihtaminen: klikkaa mustalla rastilla varustettuja vihreitä pisteitä, niin voit zoomata sisään; viivalla varustettua vihreää pistettä, niin voit zoomata ulos tai vihreitä nuolia, niin pääset viereisille kartoille.


METAR-TAF: